createdAt,value
2019-04-23T00:01:07.616Z,99.99
2019-04-23T00:01:59.770Z,99.99
2019-04-23T00:03:01.724Z,99.99
2019-04-23T00:03:51.668Z,99.99
2019-04-23T00:04:52.796Z,99.99
2019-04-23T00:06:12.093Z,99.99
2019-04-23T00:09:02.722Z,99.99
2019-04-23T00:10:06.271Z,99.99
2019-04-23T00:10:58.843Z,99.99
2019-04-23T00:11:59.836Z,99.99
2019-04-23T00:12:57.197Z,99.99
2019-04-23T00:14:03.485Z,99.99
2019-04-23T00:15:06.694Z,99.99
2019-04-23T00:16:03.062Z,99.99
2019-04-23T00:17:01.032Z,99.99
2019-04-23T00:18:00.836Z,99.99
2019-04-23T00:18:49.688Z,99.99
2019-04-23T00:20:03.828Z,99.99
2019-04-23T00:20:59.332Z,99.99
2019-04-23T00:21:57.408Z,99.99
2019-04-23T00:24:13.809Z,99.99
2019-04-23T00:27:11.188Z,99.99
2019-04-23T00:28:06.621Z,99.99
2019-04-23T00:29:10.672Z,99.99
2019-04-23T00:30:00.829Z,99.99
2019-04-23T00:32:00.973Z,99.99
2019-04-23T00:33:01.050Z,99.99
2019-04-23T00:34:01.230Z,99.99
2019-04-23T00:34:59.587Z,99.99
2019-04-23T00:35:55.052Z,99.99
2019-04-23T00:37:01.674Z,99.99
2019-04-23T00:38:05.268Z,99.99
2019-04-23T00:38:54.285Z,99.99
2019-04-23T00:39:56.562Z,99.99
2019-04-23T00:40:58.247Z,99.99
2019-04-23T00:41:58.599Z,99.99
2019-04-23T00:43:04.815Z,99.99
2019-04-23T00:44:01.951Z,99.99
2019-04-23T00:44:56.678Z,99.99
2019-04-23T00:45:54.559Z,99.99
2019-04-23T00:47:06.767Z,99.99
2019-04-23T00:47:54.729Z,99.99
2019-04-23T00:49:06.065Z,99.99
2019-04-23T00:50:06.339Z,99.99
2019-04-23T00:51:11.312Z,99.99
2019-04-23T00:52:09.463Z,99.99
2019-04-23T00:52:57.666Z,99.99
2019-04-23T00:53:56.632Z,99.99
2019-04-23T00:55:07.165Z,99.99
2019-04-23T00:56:20.051Z,99.99
2019-04-23T00:57:25.870Z,99.99
2019-04-23T00:58:06.219Z,99.99
2019-04-23T00:59:01.521Z,99.99
2019-04-23T01:01:04.132Z,99.99
2019-04-23T01:02:04.192Z,99.99
2019-04-23T01:03:57.853Z,99.99
2019-04-23T01:05:06.192Z,99.99
2019-04-23T01:05:58.872Z,99.99
2019-04-23T01:07:09.869Z,99.99
2019-04-23T01:07:58.490Z,99.99
2019-04-23T01:09:03.839Z,99.99
2019-04-23T01:09:59.809Z,99.99
2019-04-23T01:11:01.901Z,99.99
2019-04-23T01:12:03.500Z,99.99
2019-04-23T01:13:08.660Z,99.99
2019-04-23T01:14:01.127Z,99.99
2019-04-23T01:15:02.504Z,99.99
2019-04-23T01:15:59.593Z,99.99
2019-04-23T01:17:06.083Z,99.99
2019-04-23T01:18:14.072Z,99.99
2019-04-23T01:19:18.925Z,99.99
2019-04-23T01:20:01.917Z,99.99
2019-04-23T01:20:53.573Z,99.99
2019-04-23T01:21:41.146Z,99.99
2019-04-23T01:22:40.383Z,99.99
2019-04-23T01:23:47.064Z,99.99
2019-04-23T01:24:43.820Z,99.99
2019-04-23T01:25:52.277Z,99.99
2019-04-23T01:27:16.746Z,99.99
2019-04-23T01:28:02.124Z,99.99
2019-04-23T01:29:11.263Z,99.99
2019-04-23T01:30:10.038Z,99.99
2019-04-23T01:31:09.185Z,99.99
2019-04-23T01:32:07.103Z,99.99
2019-04-23T01:33:03.638Z,99.99
2019-04-23T01:34:07.948Z,99.99
2019-04-23T01:35:39.708Z,99.99
2019-04-23T01:36:20.594Z,99.99
2019-04-23T01:37:09.229Z,99.99
2019-04-23T01:38:04.801Z,99.99
2019-04-23T01:39:08.480Z,99.99
2019-04-23T01:40:11.826Z,99.99
2019-04-23T01:41:07.748Z,99.99
2019-04-23T01:42:12.944Z,99.99
2019-04-23T01:43:02.966Z,99.99
2019-04-23T01:44:04.185Z,99.99
2019-04-23T01:45:15.375Z,99.99
2019-04-23T01:46:07.937Z,99.99
2019-04-23T01:47:07.750Z,99.99
2019-04-23T01:48:17.871Z,99.99
2019-04-23T01:49:09.543Z,99.99
2019-04-23T01:51:02.530Z,99.99
2019-04-23T01:52:08.190Z,99.99
2019-04-23T01:54:02.944Z,99.99
2019-04-23T01:55:13.764Z,99.99
2019-04-23T01:56:07.775Z,99.99
2019-04-23T01:57:09.664Z,99.99
2019-04-23T01:58:31.829Z,99.99
2019-04-23T01:59:14.097Z,99.99
2019-04-23T02:01:07.288Z,99.99
2019-04-23T02:02:17.004Z,99.99
2019-04-23T02:03:24.540Z,99.99
2019-04-23T02:04:11.299Z,99.99
2019-04-23T02:05:19.318Z,99.99
2019-04-23T02:06:08.214Z,99.99
2019-04-23T02:07:11.381Z,99.99
2019-04-23T02:08:08.095Z,99.99
2019-04-23T02:09:10.973Z,99.99
2019-04-23T02:10:14.263Z,99.99
2019-04-23T02:11:07.615Z,99.99
2019-04-23T02:12:11.220Z,99.99
2019-04-23T02:13:12.606Z,99.99
2019-04-23T02:14:11.519Z,99.99
2019-04-23T02:15:12.133Z,99.99
2019-04-23T02:16:24.745Z,99.99
2019-04-23T02:17:09.785Z,99.99
2019-04-23T02:18:13.368Z,99.99
2019-04-23T02:19:11.444Z,99.99
2019-04-23T02:20:17.972Z,99.99
2019-04-23T02:21:07.471Z,99.99
2019-04-23T02:22:23.099Z,99.99
2019-04-23T02:23:21.878Z,99.99
2019-04-23T02:24:03.658Z,99.99
2019-04-23T02:25:14.412Z,99.99
2019-04-23T02:26:08.992Z,99.99
2019-04-23T02:27:17.251Z,99.99
2019-04-23T02:28:11.907Z,99.99
2019-04-23T02:29:23.640Z,99.99
2019-04-23T02:30:26.249Z,99.99
2019-04-23T02:31:44.542Z,99.99
2019-04-23T02:32:22.152Z,99.99
2019-04-23T02:33:30.122Z,99.99
2019-04-23T02:34:23.587Z,99.99
2019-04-23T02:35:42.738Z,99.99
2019-04-23T02:36:11.312Z,99.99
2019-04-23T02:37:24.453Z,99.99
2019-04-23T02:39:11.719Z,99.99
2019-04-23T02:40:26.343Z,99.99
2019-04-23T02:41:19.832Z,99.99
2019-04-23T02:44:19.134Z,99.99
2019-04-23T02:45:16.872Z,99.99
2019-04-23T02:47:33.533Z,99.99
2019-04-23T02:49:21.479Z,99.99
2019-04-23T02:50:31.521Z,99.99
2019-04-23T02:51:17.610Z,99.99
2019-04-23T02:52:21.351Z,99.99
2019-04-23T02:53:27.802Z,99.99
2019-04-23T02:54:28.735Z,99.99
2019-04-23T02:55:18.089Z,99.99
2019-04-23T02:56:32.946Z,99.99
2019-04-23T02:57:13.405Z,99.99
2019-04-23T02:58:28.161Z,99.99
2019-04-23T03:03:31.742Z,99.99
2019-04-23T03:04:37.290Z,99.99
2019-04-23T03:06:16.337Z,99.99
2019-04-23T03:07:27.816Z,99.99
2019-04-23T03:08:20.247Z,99.99
2019-04-23T03:09:23.880Z,99.99
2019-04-23T03:10:15.718Z,99.99
2019-04-23T03:11:32.084Z,99.99
2019-04-23T03:12:27.229Z,99.99
2019-04-23T03:14:15.551Z,99.99
2019-04-23T03:16:37.946Z,99.99
2019-04-23T03:17:09.727Z,99.99
2019-04-23T03:19:19.177Z,99.99
2019-04-23T03:20:21.497Z,99.99
2019-04-23T03:21:26.910Z,99.99
2019-04-23T03:23:29.178Z,99.99
2019-04-23T03:26:28.160Z,99.99
2019-04-23T03:28:26.866Z,99.99
2019-04-23T03:30:33.488Z,99.99
2019-04-23T03:34:34.978Z,99.99
2019-04-23T03:36:13.947Z,99.99
2019-04-23T03:37:33.870Z,99.99
2019-04-23T03:38:32.535Z,99.99
2019-04-23T03:39:18.800Z,99.99
2019-04-23T03:40:32.420Z,99.99
2019-04-23T03:41:21.764Z,99.99
2019-04-23T03:42:22.278Z,99.99
2019-04-23T03:43:25.533Z,99.99
2019-04-23T03:44:22.367Z,99.99
2019-04-23T03:46:24.168Z,99.99
2019-04-23T03:47:24.962Z,99.99
2019-04-23T03:49:13.435Z,99.99
2019-04-23T03:50:24.112Z,99.99
2019-04-23T03:51:26.002Z,99.99
2019-04-23T03:53:24.741Z,99.99
2019-04-23T03:55:29.230Z,99.99
2019-04-23T03:56:34.318Z,99.99
2019-04-23T03:58:28.334Z,99.99
2019-04-23T03:59:29.699Z,99.99
2019-04-23T04:00:37.209Z,99.99
2019-04-23T04:01:22.895Z,99.99
2019-04-23T04:03:42.128Z,99.99
2019-04-23T04:04:31.212Z,99.99
2019-04-23T04:05:31.155Z,99.99
2019-04-23T04:07:30.202Z,99.99
2019-04-23T04:08:18.076Z,99.99
2019-04-23T04:09:33.163Z,99.99
2019-04-23T04:10:16.655Z,99.99
2019-04-23T04:11:25.767Z,99.99
2019-04-23T04:12:29.361Z,99.99
2019-04-23T04:14:31.676Z,99.99
2019-04-23T04:15:43.721Z,99.99
2019-04-23T04:16:17.883Z,99.99
2019-04-23T04:17:19.818Z,99.99
2019-04-23T04:18:32.693Z,99.99
2019-04-23T04:20:29.031Z,99.99
2019-04-23T04:21:24.632Z,99.99
2019-04-23T04:22:29.225Z,99.99
2019-04-23T04:24:29.534Z,99.99
2019-04-23T04:25:30.727Z,99.99
2019-04-23T04:26:22.864Z,99.99
2019-04-23T04:27:26.998Z,99.99
2019-04-23T04:29:30.106Z,99.99
2019-04-23T04:30:27.265Z,99.99
2019-04-23T04:31:23.419Z,99.99
2019-04-23T04:32:38.300Z,99.99
2019-04-23T04:34:39.772Z,99.99
2019-04-23T04:35:22.809Z,99.99
2019-04-23T04:38:38.546Z,99.99
2019-04-23T04:40:36.435Z,99.99
2019-04-23T04:41:25.502Z,99.99
2019-04-23T04:42:15.178Z,99.99
2019-04-23T04:43:41.669Z,99.99
2019-04-23T04:46:35.094Z,99.99
2019-04-23T04:47:33.286Z,99.99
2019-04-23T04:48:22.963Z,99.99
2019-04-23T04:49:23.684Z,99.99
2019-04-23T04:50:24.143Z,99.99
2019-04-23T04:51:28.885Z,99.99
2019-04-23T04:52:39.251Z,99.99
2019-04-23T04:54:21.580Z,99.99
2019-04-23T04:55:21.502Z,99.99
2019-04-23T04:56:34.201Z,99.99
2019-04-23T04:57:34.931Z,99.99
2019-04-23T04:58:23.530Z,99.99
2019-04-23T04:59:26.254Z,99.99
2019-04-23T05:03:25.931Z,99.99
2019-04-23T05:04:30.768Z,99.99
2019-04-23T05:06:02.797Z,99.99
2019-04-23T05:06:24.682Z,99.99
2019-04-23T05:07:32.644Z,99.99
2019-04-23T05:08:36.849Z,99.99
2019-04-23T05:11:26.815Z,99.99
2019-04-23T05:12:22.793Z,99.99
2019-04-23T05:14:25.207Z,99.99
2019-04-23T05:15:25.762Z,99.99
2019-04-23T05:16:19.652Z,99.99
2019-04-23T05:17:30.185Z,99.99
2019-04-23T05:18:23.982Z,99.99
2019-04-23T05:19:28.762Z,99.99
2019-04-23T05:20:21.031Z,99.99
2019-04-23T05:21:33.140Z,99.99
2019-04-23T05:22:20.845Z,99.99
2019-04-23T05:23:33.826Z,99.99
2019-04-23T05:25:17.657Z,99.99
2019-04-23T05:26:24.738Z,99.99
2019-04-23T05:27:17.494Z,99.99
2019-04-23T05:28:24.552Z,99.99
2019-04-23T05:30:29.804Z,99.99
2019-04-23T05:31:18.646Z,99.99
2019-04-23T05:32:20.527Z,99.99
2019-04-23T05:33:29.046Z,99.99
2019-04-23T05:34:19.516Z,99.99
2019-04-23T05:36:52.148Z,99.99
2019-04-23T05:37:27.776Z,99.99
2019-04-23T05:38:37.704Z,99.99
2019-04-23T05:39:24.325Z,99.99
2019-04-23T05:40:30.401Z,99.99
2019-04-23T05:42:20.800Z,99.99
2019-04-23T05:43:19.144Z,99.99
2019-04-23T05:44:27.700Z,99.99
2019-04-23T05:45:18.470Z,99.99
2019-04-23T05:46:26.356Z,99.99
2019-04-23T05:47:25.419Z,99.99
2019-04-23T05:48:17.487Z,99.99
2019-04-23T05:49:17.953Z,99.99
2019-04-23T05:50:26.020Z,99.99
2019-04-23T05:51:31.119Z,99.99
2019-04-23T05:52:24.000Z,99.99
2019-04-23T05:53:19.616Z,99.99
2019-04-23T05:54:18.949Z,99.99
2019-04-23T05:55:34.086Z,99.99
2019-04-23T05:56:21.061Z,99.99
2019-04-23T05:57:13.971Z,99.99
2019-04-23T05:58:23.179Z,99.99
2019-04-23T05:59:17.798Z,99.99
2019-04-23T06:00:23.650Z,99.99
2019-04-23T06:01:47.226Z,99.99
2019-04-23T06:02:19.934Z,99.99
2019-04-23T06:03:22.625Z,99.99
2019-04-23T06:06:29.742Z,99.99
2019-04-23T06:07:28.803Z,99.99
2019-04-23T06:08:25.297Z,99.99
2019-04-23T06:09:19.244Z,99.99
2019-04-23T06:10:23.388Z,99.99
2019-04-23T06:11:30.519Z,99.99
2019-04-23T06:12:21.469Z,99.99
2019-04-23T06:13:20.584Z,99.99
2019-04-23T06:14:26.923Z,99.99
2019-04-23T06:15:22.247Z,99.99
2019-04-23T06:16:23.565Z,99.99
2019-04-23T06:17:29.815Z,99.99
2019-04-23T06:18:25.420Z,99.99
2019-04-23T06:19:16.879Z,99.99
2019-04-23T06:20:27.278Z,99.99
2019-04-23T06:21:27.949Z,99.99
2019-04-23T06:23:28.834Z,99.99
2019-04-23T06:25:31.566Z,99.99
2019-04-23T06:26:32.184Z,99.99
2019-04-23T06:27:27.343Z,99.99
2019-04-23T06:28:24.671Z,99.99
2019-04-23T06:30:28.825Z,99.99
2019-04-23T06:31:26.550Z,99.99
2019-04-23T06:32:19.611Z,99.99
2019-04-23T06:33:41.773Z,99.99
2019-04-23T06:34:21.958Z,99.99
2019-04-23T06:35:27.063Z,99.99
2019-04-23T06:36:29.161Z,99.99
2019-04-23T06:37:28.315Z,99.99
2019-04-23T06:39:16.172Z,99.99
2019-04-23T06:40:25.137Z,99.99
2019-04-23T06:41:25.907Z,99.99
2019-04-23T06:42:19.430Z,99.99
2019-04-23T06:43:25.642Z,99.99
2019-04-23T06:45:14.546Z,99.99
2019-04-23T06:46:20.036Z,99.99
2019-04-23T06:47:21.924Z,99.99
2019-04-23T06:48:21.832Z,99.99
2019-04-23T06:49:26.188Z,99.99
2019-04-23T06:50:23.956Z,99.99
2019-04-23T06:51:31.103Z,99.99
2019-04-23T06:53:20.930Z,99.99
2019-04-23T06:54:27.677Z,99.99
2019-04-23T06:55:25.417Z,99.99
2019-04-23T06:56:26.369Z,99.99
2019-04-23T06:58:25.426Z,99.99
2019-04-23T07:00:25.897Z,99.99
2019-04-23T07:01:20.106Z,99.99
2019-04-23T07:03:21.875Z,99.99
2019-04-23T07:04:33.156Z,99.99
2019-04-23T07:05:23.850Z,99.99
2019-04-23T07:06:29.421Z,99.99
2019-04-23T07:08:41.002Z,99.99
2019-04-23T07:09:13.819Z,99.99
2019-04-23T07:10:29.894Z,99.99
2019-04-23T07:12:21.912Z,99.99
2019-04-23T07:13:33.443Z,99.99
2019-04-23T07:14:26.147Z,99.99
2019-04-23T07:15:33.595Z,99.99
2019-04-23T07:16:21.604Z,99.99
2019-04-23T07:17:21.290Z,99.99
2019-04-23T07:18:27.830Z,99.99
2019-04-23T07:20:28.643Z,99.99
2019-04-23T07:22:23.764Z,99.99
2019-04-23T07:23:35.771Z,99.99
2019-04-23T07:24:26.379Z,99.99
2019-04-23T07:26:30.409Z,99.99
2019-04-23T07:27:25.748Z,99.99
2019-04-23T07:28:26.092Z,99.99
2019-04-23T07:29:27.622Z,99.99
2019-04-23T07:30:22.327Z,99.99
2019-04-23T07:31:26.611Z,99.99
2019-04-23T07:32:23.681Z,99.99
2019-04-23T07:33:29.857Z,99.99
2019-04-23T07:34:18.768Z,99.99
2019-04-23T07:35:43.340Z,99.99
2019-04-23T07:36:29.552Z,99.99
2019-04-23T07:37:22.878Z,99.99
2019-04-23T07:38:33.349Z,99.99
2019-04-23T07:40:26.999Z,99.99
2019-04-23T07:41:30.659Z,99.99
2019-04-23T07:43:20.187Z,99.99
2019-04-23T07:44:44.632Z,99.99
2019-04-23T07:45:24.010Z,99.99
2019-04-23T07:46:40.781Z,99.99
2019-04-23T07:47:36.389Z,99.99
2019-04-23T07:48:37.055Z,99.99
2019-04-23T07:49:26.567Z,99.99
2019-04-23T07:50:31.959Z,99.99
2019-04-23T07:51:29.239Z,99.99
2019-04-23T07:53:23.094Z,99.99
2019-04-23T07:54:22.795Z,99.99
2019-04-23T07:56:21.227Z,99.99
2019-04-23T07:57:40.234Z,99.99
2019-04-23T07:58:27.418Z,99.99
2019-04-23T07:59:31.343Z,99.99
2019-04-23T08:00:35.373Z,99.99
2019-04-23T08:01:17.967Z,99.99
2019-04-23T08:02:26.233Z,99.99
2019-04-23T08:03:30.718Z,99.99
2019-04-23T08:04:29.548Z,99.99
2019-04-23T08:05:28.688Z,99.99
2019-04-23T08:06:24.605Z,99.99
2019-04-23T08:07:30.097Z,99.99
2019-04-23T08:08:39.373Z,99.99
2019-04-23T08:09:27.788Z,99.99
2019-04-23T08:10:29.767Z,99.99
2019-04-23T08:11:40.380Z,99.99
2019-04-23T08:13:37.531Z,99.99
2019-04-23T08:14:22.308Z,99.99
2019-04-23T08:15:32.740Z,99.99
2019-04-23T08:17:25.809Z,99.99
2019-04-23T08:18:29.550Z,99.99
2019-04-23T08:19:33.120Z,99.99
2019-04-23T08:20:30.720Z,99.99
2019-04-23T08:21:39.567Z,99.99
2019-04-23T08:22:28.618Z,99.99
2019-04-23T08:23:26.125Z,99.99
2019-04-23T08:24:27.510Z,99.99
2019-04-23T08:25:31.933Z,99.99
2019-04-23T08:26:34.984Z,99.99
2019-04-23T08:27:22.418Z,99.99
2019-04-23T08:28:37.142Z,99.99
2019-04-23T08:29:31.012Z,99.99
2019-04-23T08:30:28.925Z,99.99
2019-04-23T08:31:32.054Z,99.99
2019-04-23T08:32:21.317Z,99.99
2019-04-23T08:33:23.414Z,99.99
2019-04-23T08:35:21.284Z,99.99
2019-04-23T08:36:31.177Z,99.99
2019-04-23T08:37:58.774Z,99.99
2019-04-23T08:38:32.297Z,99.99
2019-04-23T08:39:32.795Z,99.99
2019-04-23T08:40:33.886Z,99.99
2019-04-23T08:41:33.458Z,99.99
2019-04-23T08:43:36.426Z,99.99
2019-04-23T08:44:44.891Z,99.99
2019-04-23T08:45:28.371Z,99.99
2019-04-23T08:46:35.542Z,99.99
2019-04-23T08:47:27.809Z,99.99
2019-04-23T08:48:27.803Z,99.99
2019-04-23T08:49:36.110Z,99.99
2019-04-23T08:52:27.517Z,99.99
2019-04-23T08:53:37.620Z,99.99
2019-04-23T08:54:46.404Z,99.99
2019-04-23T08:55:34.626Z,99.99
2019-04-23T08:56:31.876Z,99.99
2019-04-23T08:57:38.264Z,99.99
2019-04-23T08:59:39.914Z,99.99
2019-04-23T09:00:33.020Z,99.99
2019-04-23T09:01:49.212Z,99.99
2019-04-23T09:02:35.860Z,99.99
2019-04-23T09:04:31.940Z,99.99
2019-04-23T09:06:48.196Z,99.99
2019-04-23T09:07:31.858Z,99.99
2019-04-23T09:09:39.744Z,99.99
2019-04-23T09:10:37.448Z,99.99
2019-04-23T09:11:43.455Z,99.99
2019-04-23T09:12:44.090Z,99.99
2019-04-23T09:13:52.472Z,99.99
2019-04-23T09:14:27.849Z,99.99
2019-04-23T09:16:37.839Z,99.99
2019-04-23T09:17:34.123Z,99.99
2019-04-23T09:18:29.097Z,99.99
2019-04-23T09:19:32.151Z,99.99
2019-04-23T09:20:27.777Z,99.99
2019-04-23T09:21:29.267Z,99.99
2019-04-23T09:23:34.706Z,99.99
2019-04-23T09:24:33.011Z,99.99
2019-04-23T09:25:37.344Z,99.99
2019-04-23T09:26:25.843Z,99.99
2019-04-23T09:29:39.112Z,99.99
2019-04-23T09:30:33.673Z,99.99
2019-04-23T09:31:45.764Z,99.99
2019-04-23T09:34:31.514Z,99.99
2019-04-23T09:37:34.727Z,99.99
2019-04-23T09:38:44.998Z,99.99
2019-04-23T09:40:41.481Z,99.99
2019-04-23T09:41:27.390Z,99.99
2019-04-23T09:42:33.494Z,99.99
2019-04-23T09:44:47.230Z,99.99
2019-04-23T09:45:34.262Z,99.99
2019-04-23T09:46:29.642Z,99.99
2019-04-23T09:47:49.011Z,99.99
2019-04-23T09:48:35.425Z,99.99
2019-04-23T09:49:35.021Z,99.99
2019-04-23T09:51:32.865Z,99.99
2019-04-23T09:53:27.826Z,99.99
2019-04-23T09:54:36.866Z,99.99
2019-04-23T09:55:35.634Z,99.99
2019-04-23T09:56:37.850Z,99.99
2019-04-23T09:57:36.112Z,99.99
2019-04-23T09:58:41.973Z,99.99
2019-04-23T10:02:22.163Z,99.99
2019-04-23T10:03:20.142Z,99.99
2019-04-23T10:04:18.842Z,99.99
2019-04-23T10:05:16.620Z,99.99
2019-04-23T10:06:12.681Z,99.99
2019-04-23T10:07:17.985Z,99.99
2019-04-23T10:08:13.845Z,99.99
2019-04-23T10:09:06.670Z,99.99
2019-04-23T10:10:05.371Z,99.99
2019-04-23T10:11:05.087Z,99.99
2019-04-23T10:12:05.169Z,99.99
2019-04-23T10:13:06.014Z,99.99
2019-04-23T10:14:06.064Z,99.99
2019-04-23T10:15:10.911Z,99.99
2019-04-23T10:16:06.423Z,99.99
2019-04-23T10:17:06.282Z,99.99
2019-04-23T10:18:04.791Z,99.99
2019-04-23T10:19:06.050Z,99.99
2019-04-23T10:20:04.867Z,99.99
2019-04-23T10:21:05.620Z,99.99
2019-04-23T10:22:05.143Z,99.99
2019-04-23T10:23:06.273Z,99.99
2019-04-23T10:24:05.470Z,99.99
2019-04-23T10:25:06.673Z,99.99
2019-04-23T10:26:06.160Z,99.99
2019-04-23T10:27:06.058Z,99.99
2019-04-23T10:28:08.864Z,99.99
2019-04-23T10:29:05.642Z,99.99
2019-04-23T10:30:05.967Z,99.99
2019-04-23T10:31:06.948Z,99.99
2019-04-23T10:32:05.427Z,99.99
2019-04-23T10:33:05.719Z,99.99
2019-04-23T10:34:06.400Z,99.99
2019-04-23T10:35:20.236Z,99.99
2019-04-23T10:36:11.053Z,99.99
2019-04-23T10:37:07.163Z,99.99
2019-04-23T10:38:10.770Z,99.99
2019-04-23T10:39:11.815Z,99.99
2019-04-23T10:40:11.152Z,99.99
2019-04-23T10:41:06.429Z,99.99
2019-04-23T10:42:05.987Z,99.99
2019-04-23T10:43:07.382Z,99.99
2019-04-23T10:44:07.075Z,99.99
2019-04-23T10:45:19.352Z,99.99
2019-04-23T10:46:27.993Z,99.99
2019-04-23T10:47:32.351Z,99.99
2019-04-23T10:50:40.327Z,99.99
2019-04-23T10:52:33.778Z,99.99
2019-04-23T10:53:38.006Z,99.99
2019-04-23T10:55:41.025Z,99.99
2019-04-23T10:57:46.185Z,99.99
2019-04-23T10:58:35.364Z,99.99
2019-04-23T10:59:35.025Z,99.99
2019-04-23T11:00:36.066Z,99.99
2019-04-23T11:01:39.266Z,99.99
2019-04-23T11:02:40.164Z,99.99
2019-04-23T11:04:49.171Z,99.99
2019-04-23T11:05:47.581Z,99.99
2019-04-23T11:06:41.104Z,99.99
2019-04-23T11:08:37.043Z,99.99
2019-04-23T11:09:49.636Z,99.99
2019-04-23T11:10:32.875Z,99.99
2019-04-23T11:11:36.114Z,99.99
2019-04-23T11:13:31.827Z,99.99
2019-04-23T11:14:42.249Z,99.99
2019-04-23T11:15:47.312Z,99.99
2019-04-23T11:18:47.772Z,99.99
2019-04-23T11:20:41.206Z,99.99
2019-04-23T11:21:47.678Z,99.99
2019-04-23T11:23:34.591Z,99.99
2019-04-23T11:24:41.715Z,99.99
2019-04-23T11:26:42.397Z,99.99
2019-04-23T11:27:42.932Z,99.99
2019-04-23T11:31:54.275Z,99.99
2019-04-23T11:33:39.530Z,99.99
2019-04-23T11:34:57.064Z,99.99
2019-04-23T11:35:50.611Z,99.99
2019-04-23T11:38:16.045Z,99.99
2019-04-23T11:39:49.587Z,99.99
2019-04-23T11:40:33.282Z,99.99
2019-04-23T11:41:45.773Z,99.99
2019-04-23T11:42:44.324Z,99.99
2019-04-23T11:43:34.347Z,99.99
2019-04-23T11:45:53.837Z,99.99
2019-04-23T11:51:11.192Z,99.99
2019-04-23T11:52:44.672Z,99.99
2019-04-23T11:53:42.898Z,99.99
2019-04-23T11:54:39.367Z,99.99
2019-04-23T11:57:07.810Z,99.99
2019-04-23T11:59:44.331Z,99.99
2019-04-23T12:00:51.261Z,99.99
2019-04-23T12:01:46.510Z,99.99
2019-04-23T12:02:43.417Z,99.99
2019-04-23T12:03:47.086Z,99.99
2019-04-23T12:04:49.920Z,99.99
2019-04-23T12:05:41.665Z,99.99
2019-04-23T12:06:44.469Z,99.99
2019-04-23T12:07:33.980Z,99.99
2019-04-23T12:08:47.495Z,99.99
2019-04-23T12:09:46.564Z,99.99
2019-04-23T12:12:39.606Z,99.99
2019-04-23T12:13:45.256Z,99.99
2019-04-23T12:14:42.249Z,99.99
2019-04-23T12:15:53.449Z,99.99
2019-04-23T12:16:47.136Z,99.99
2019-04-23T12:17:43.803Z,99.99
2019-04-23T12:19:01.853Z,98.14
2019-04-23T12:21:43.799Z,97.52
2019-04-23T12:22:51.795Z,97.37
2019-04-23T12:23:52.285Z,96.30
2019-04-23T12:25:47.633Z,93.52
2019-04-23T12:26:44.066Z,91.52
2019-04-23T12:27:35.504Z,91.17
2019-04-23T12:28:44.057Z,89.31
2019-04-23T12:30:50.153Z,85.72
2019-04-23T12:31:38.013Z,83.26
2019-04-23T12:32:48.053Z,82.07
2019-04-23T12:33:43.888Z,79.25
2019-04-23T12:34:46.844Z,75.92
2019-04-23T12:35:42.304Z,75.43
2019-04-23T12:36:42.069Z,75.26
2019-04-23T12:37:41.262Z,77.57
2019-04-23T12:38:47.908Z,77.98
2019-04-23T12:39:41.539Z,79.74
2019-04-23T12:41:44.824Z,77.67
2019-04-23T12:43:28.648Z,75.94
2019-04-23T12:44:46.186Z,76.29
2019-04-23T12:45:35.542Z,77.39
2019-04-23T12:47:58.293Z,81.97
2019-04-23T12:48:51.959Z,81.97
2019-04-23T12:50:51.575Z,82.42
2019-04-23T12:51:53.532Z,82.03
2019-04-23T12:53:41.755Z,85.07
2019-04-23T12:55:40.345Z,85.71
2019-04-23T12:56:48.710Z,84.48
2019-04-23T12:57:43.694Z,84.97
2019-04-23T12:58:32.134Z,84.92
2019-04-23T12:59:44.677Z,84.53
2019-04-23T13:01:51.354Z,83.89
2019-04-23T13:02:44.627Z,84.33
2019-04-23T13:04:41.593Z,85.21
2019-04-23T13:06:40.718Z,82.95
2019-04-23T13:08:02.017Z,83.04
2019-04-23T13:08:46.570Z,81.87
2019-04-23T13:09:47.545Z,82.26
2019-04-23T13:10:50.124Z,81.82
2019-04-23T13:11:45.637Z,82.19
2019-04-23T13:12:50.304Z,79.82
2019-04-23T13:13:47.962Z,78.03
2019-04-23T13:14:57.636Z,75.50
2019-04-23T13:15:45.618Z,73.47
2019-04-23T13:16:45.589Z,73.11
2019-04-23T13:18:46.766Z,71.61
2019-04-23T13:19:49.526Z,70.43
2019-04-23T13:20:38.553Z,69.54
2019-04-23T13:22:49.400Z,69.54
2019-04-23T13:23:39.160Z,68.66
2019-04-23T13:24:40.787Z,70.00
2019-04-23T13:26:37.956Z,70.40
2019-04-23T13:27:46.906Z,70.00
2019-04-23T13:28:39.630Z,70.00
2019-04-23T13:29:56.560Z,69.87
2019-04-23T13:30:51.321Z,68.07
2019-04-23T13:31:40.319Z,68.86
2019-04-23T13:32:48.827Z,68.76
2019-04-23T13:33:44.110Z,68.86
2019-04-23T13:34:54.755Z,68.66
2019-04-23T13:36:45.144Z,68.30
2019-04-23T13:37:58.899Z,67.77
2019-04-23T13:38:43.934Z,66.72
2019-04-23T13:39:50.341Z,65.77
2019-04-23T13:41:01.169Z,64.84
2019-04-23T13:41:40.568Z,64.39
2019-04-23T13:42:45.246Z,63.23
2019-04-23T13:44:51.882Z,62.10
2019-04-23T13:46:01.554Z,61.18
2019-04-23T13:46:40.978Z,61.94
2019-04-23T13:48:37.648Z,62.44
2019-04-23T13:49:51.137Z,60.36
2019-04-23T13:51:40.449Z,61.65
2019-04-23T13:55:01.413Z,62.31
2019-04-23T13:55:42.896Z,62.44
2019-04-23T13:57:13.151Z,60.89
2019-04-23T13:58:02.661Z,61.21
2019-04-23T13:58:43.293Z,60.00
2019-04-23T13:59:44.364Z,60.63
2019-04-23T14:00:59.611Z,61.36
2019-04-23T14:02:43.827Z,64.20
2019-04-23T14:05:49.375Z,67.38
2019-04-23T14:06:43.480Z,69.41
2019-04-23T14:07:48.422Z,70.13
2019-04-23T14:10:04.630Z,71.80
2019-04-23T14:10:46.533Z,71.95
2019-04-23T14:11:38.882Z,72.12
2019-04-23T14:13:03.652Z,73.36
2019-04-23T14:15:54.033Z,73.36
2019-04-23T14:17:59.440Z,74.69
2019-04-23T14:19:45.716Z,74.98
2019-04-23T14:21:12.153Z,74.82
2019-04-23T14:21:46.959Z,74.92
2019-04-23T14:23:00.308Z,73.13
2019-04-23T14:24:02.941Z,74.49
2019-04-23T14:25:59.631Z,75.24
2019-04-23T14:26:48.310Z,75.34
2019-04-23T14:28:01.384Z,76.12
2019-04-23T14:30:54.243Z,76.12
2019-04-23T14:31:43.460Z,76.67
2019-04-23T14:32:45.465Z,76.97
2019-04-23T14:33:52.648Z,77.42
2019-04-23T14:34:56.858Z,77.16
2019-04-23T14:35:45.226Z,77.39
2019-04-23T14:36:52.126Z,76.45
2019-04-23T14:38:01.951Z,75.42
2019-04-23T14:39:47.741Z,73.98
2019-04-23T14:40:58.930Z,73.52
2019-04-23T14:42:12.509Z,73.07
2019-04-23T14:43:04.402Z,72.45
2019-04-23T14:44:51.569Z,72.19
2019-04-23T14:46:04.785Z,71.11
2019-04-23T14:46:54.882Z,71.44
2019-04-23T14:48:04.296Z,70.49
2019-04-23T14:50:09.309Z,69.87
2019-04-23T14:51:11.133Z,68.04
2019-04-23T14:52:58.876Z,66.93
2019-04-23T14:53:46.569Z,66.82
2019-04-23T14:55:22.411Z,66.53
2019-04-23T14:55:57.436Z,66.69
2019-04-23T14:56:51.615Z,66.79
2019-04-23T14:58:09.915Z,67.29
2019-04-23T14:58:58.032Z,67.55
2019-04-23T14:59:57.282Z,67.74
2019-04-23T15:01:07.246Z,67.32
2019-04-23T15:01:49.514Z,67.91
2019-04-23T15:02:51.929Z,68.20
2019-04-23T15:03:46.738Z,67.81
2019-04-23T15:04:51.768Z,68.59
2019-04-23T15:05:56.395Z,68.66
2019-04-23T15:07:52.174Z,68.63
2019-04-23T15:09:59.265Z,70.65
2019-04-23T15:11:44.092Z,70.52
2019-04-23T15:12:57.906Z,71.41
2019-04-23T15:13:51.213Z,71.31
2019-04-23T15:14:59.845Z,70.62
2019-04-23T15:15:53.433Z,71.53
2019-04-23T15:16:56.357Z,70.65
2019-04-23T15:17:49.685Z,70.26
2019-04-23T15:19:02.588Z,70.06
2019-04-23T15:19:48.247Z,70.10
2019-04-23T15:20:53.586Z,69.35
2019-04-23T15:22:04.788Z,68.79
2019-04-23T15:23:02.761Z,67.55
2019-04-23T15:24:48.662Z,66.96
2019-04-23T15:26:44.500Z,66.96
2019-04-23T15:28:05.228Z,67.84
2019-04-23T15:28:30.305Z,67.84
2019-04-23T15:29:43.013Z,67.91
2019-04-23T15:30:57.125Z,69.18
2019-04-23T15:33:07.663Z,71.57
2019-04-23T15:34:57.422Z,72.48
2019-04-23T15:36:04.171Z,73.52
2019-04-23T15:37:12.461Z,74.37
2019-04-23T15:39:58.894Z,76.39
2019-04-23T15:40:54.621Z,76.88
2019-04-23T15:43:57.423Z,77.83
2019-04-23T15:44:57.373Z,77.10
2019-04-23T15:45:56.609Z,77.69
2019-04-23T15:46:56.577Z,78.28
2019-04-23T15:48:00.379Z,78.12
2019-04-23T15:49:01.482Z,76.84
2019-04-23T15:49:51.465Z,77.27
2019-04-23T15:50:51.678Z,76.82
2019-04-23T15:51:57.925Z,76.07
2019-04-23T15:52:56.512Z,74.11
2019-04-23T15:53:48.567Z,74.11
2019-04-23T15:54:55.290Z,73.72
2019-04-23T15:55:50.202Z,74.96
2019-04-23T15:59:04.434Z,75.51
2019-04-23T16:01:00.773Z,75.45